Brisbane - nearby METAR Reports

YBBN - Brisbane Intl Ar, Australia
Distance from station: NNE 11km
Updated: 29/01/2020 00:30
Few Clouds
Few Clouds
 Wind from WNW
Wind: WNW 9 km/h
Temperature: 25°C
Dew Point: 23°C
Humidity: 89%
Barometer: 1013 hPa
Clouds: Few Clouds
Visibility: 10 km
Cloud details: Few Clouds 488 m
2020/01/28 14:30 YBBN 281430Z 30005KT 9999 FEW016 25/23 Q1013 NOSIG
YAMB - Amberley, Australia
Distance from station: WSW 42km
Updated: 29/01/2020 01:00
Clear
Clear
 Wind from calm
Wind: Calm
Temperature: 22°C
Dew Point: 21°C
Humidity: 94%
Barometer: 1013 hPa
Clouds: Clear
Visibility: 10 km
2020/01/28 15:00 YAMB 281500Z AUTO 00000KT 9999 // NCD 22/21 Q1013
 
YBCG - Coolangatta Aws, Australia
Distance from station: SSE 102km
Updated: 29/01/2020 01:00
Mostly cloudy
Mostly cloudy
 Wind from NNW
Wind: NNW 11 km/h
Temperature: 24°C
Dew Point: 21°C
Humidity: 83%
Barometer: 1013 hPa
Clouds: Mostly cloudy
Visibility: 10 km
Cloud details: Mostly cloudy 792 m
2020/01/28 15:00 YBCG 281500Z AUTO 33006KT 9999 // BKN026 24/21 Q1013

Cumulus logo AWN logo WOW logo PWS logo WU logo AWEKAS logo